Wausau Downtown Airport
KAUW : now visible

Airfield :











YOU CAN JOIN US ON...

 
LOGIN :

Register | Disclaimer

   EN    FR    IT 

 









Legend :    VFR   Marginal VFR   IFR   Intensive IFR   Very Intensive IFR
Visi :
Ceiling :
>= 8 km
>= 3000ft
5 to 8 km
1000 to 3000 ft
1500m to 5 km
500 to 1000 ft
800 to 1500m
200 to 500 ft
< 800m
< 200 ft
Symbols :   Thunderstorms  Fog  Heavy snow  Heavy precipitations  Wind > 20 kt






- Airport Elevation : 1201 ft


KAUW - Wausau Downtown

CURRENT METAR :
  • 141554Z AUTO 28009KT 10SM OVC022 M05/M09 A3015 RMK AO2 SLP233 T10501094

EXPIRED METARs :
  • 141354Z AUTO 31008KT 10SM OVC022 M06/M10 A3013 RMK AO2 SLP228 T10561100

TAF KAUW
Valid from the 14 at 12:00 until the 15 at 12:00 UTC


141139Z 1412/1512 30005KT P6SM OVC027
FM141600 27008KT P6SM SCT030
FM150200 27009G15KT P6SM BKN040 WS020/29040KT
FM150700 28008KT P6SM BKN025 WS020/30035KT
FM150900 29006KT P6SM BKN015



MET'MAP, your aeronautical weather chart ! - Copyright ORBIFLY December 2007 - Disclaimer

ORBIFLY MET'MAP TEAM :

Programming & Development : Alexandra Zaïnal
Concept & Development : Baudouin d'Aumeries
Co-Development & Prog : Marc-Olivier Méhu
Technical & hardware support : Manuel Goepfert

Contact : metmap@orbifly.com




SOURCES & CREDITS :

   NOAA       Earth
Advisory